Lunderskov, Denmark
Current Conditions -  °F | °C
As of 3:20 AM on Saturday 25 Oct 2014 (Local Time) from EKSP Reporting Station
Broken Clouds Broken Clouds  
Wind Chill: 50°   Ceiling: 600
Heat Index: 50°   Visibility: 3mi
Dew Point: 50°   Wind: 14mph
Humidity: 100%   Direction: 190°S
Pressure: 29.91"   Gusts: NA
Location:  55.48°N, 9.3°E
Report Text: EKSP 250120Z 19012KT 5000 BKN006 10/10 Q1013
Loading
Personal Weather Stations






























Interactive Weather Map
Tropical Storm Tracking
New forecast layout! Learn more

10-Day Weather Forecast

Advertisements
Track Severe Weather on mobile